Time;durP1;ratioP1;P1;durP2;ratioP2;P2;SDS_P1;SDS_P2;PMS_P1;PMS_P2;Temp;Humidity;BMP_temperature;BMP_pressure;BME280_temperature;BME280_humidity;BME280_pressure;Samples;Min_cycle;Max_cycle;Signal;HPM_P1;HPM_P2
2023/10/08 00:01:07;;;;;;;15.70;5.90;;;;;;;18.00;100.00;102145.06;5074822;28;20050;-66
2023/10/08 00:03:58;;;;;;;12.68;5.55;;;;;;;17.96;100.00;102155.00;5054541;28;20068;-66
2023/10/08 00:06:47;;;;;;;15.27;5.43;;;;;;;17.95;100.00;102156.13;5055617;28;20044;-67
2023/10/08 00:09:36;;;;;;;12.45;5.32;;;;;;;17.95;100.00;102161.66;5074371;28;20072;-67
2023/10/08 00:12:24;;;;;;;14.57;5.32;;;;;;;17.94;100.00;102165.50;5059542;28;20043;-66
2023/10/08 00:15:12;;;;;;;11.80;5.75;;;;;;;17.93;100.00;102164.69;5072487;28;20166;-67
2023/10/08 00:18:01;;;;;;;13.63;5.55;;;;;;;17.93;100.00;102163.88;5058893;28;20044;-67
2023/10/08 00:21:15;;;;;;;13.43;4.80;;;;;;;17.92;100.00;102167.72;5068338;28;20131;-67
2023/10/08 00:24:06;;;;;;;11.57;5.40;;;;;;;17.92;100.00;102164.97;5042757;28;20631;-67
2023/10/08 00:26:54;;;;;;;13.73;5.28;;;;;;;17.91;100.00;102171.59;5046902;28;20142;-66
2023/10/08 00:29:43;;;;;;;15.77;5.63;;;;;;;17.91;100.00;102171.59;5053478;28;20049;-67
2023/10/08 00:32:31;;;;;;;15.23;5.97;;;;;;;17.88;100.00;102168.28;5063125;28;20052;-67
2023/10/08 00:35:20;;;;;;;13.82;5.07;;;;;;;17.88;100.00;102170.22;5072876;28;20052;-66
2023/10/08 00:38:15;;;;;;;16.75;6.10;;;;;;;17.85;100.00;102174.38;5056839;28;20500;-67
2023/10/08 00:41:06;;;;;;;11.88;5.78;;;;;;;17.83;100.00;102173.03;5072342;28;20048;-67
2023/10/08 00:43:56;;;;;;;15.27;5.97;;;;;;;17.79;100.00;102172.72;5057986;28;20213;-66
2023/10/08 00:46:47;;;;;;;16.30;5.93;;;;;;;17.79;100.00;102169.13;5072009;28;20412;-67
2023/10/08 00:52:38;;;;;;;17.98;5.93;;;;;;;17.71;100.00;102178.84;5071961;28;20108;-67
2023/10/08 00:55:30;;;;;;;12.85;5.50;;;;;;;17.71;100.00;102176.06;5046367;28;20048;-67
2023/10/08 00:58:24;;;;;;;16.98;5.32;;;;;;;17.71;100.00;102178.84;5071457;28;20128;-67
2023/10/08 01:01:16;;;;;;;13.63;4.90;;;;;;;17.71;100.00;102184.34;5073372;28;20044;-67
2023/10/08 01:04:11;;;;;;;15.55;5.45;;;;;;;17.69;100.00;102175.53;5072777;28;20447;-67
2023/10/08 01:07:12;;;;;;;14.00;5.00;;;;;;;17.68;100.00;102168.38;5071629;28;20048;-67
2023/10/08 01:10:05;;;;;;;15.20;5.53;;;;;;;17.68;100.00;102168.38;5049485;28;20040;-67
2023/10/08 01:13:14;;;;;;;16.48;5.95;;;;;;;17.65;100.00;102169.78;5071375;28;20055;-66
2023/10/08 01:16:03;;;;;;;14.18;5.47;;;;;;;17.65;100.00;102164.25;5058939;28;20506;-67
2023/10/08 01:18:54;;;;;;;12.45;5.13;;;;;;;17.64;100.00;102161.78;5057552;28;20107;-68
2023/10/08 01:21:42;;;;;;;16.23;5.70;;;;;;;17.62;100.00;102148.28;5052383;28;20067;-68
2023/10/08 01:24:34;;;;;;;16.85;5.72;;;;;;;17.63;100.00;102151.84;5057340;28;20068;-68
2023/10/08 01:27:24;;;;;;;11.95;5.65;;;;;;;17.61;100.00;102154.09;5059908;28;20485;-67
2023/10/08 01:30:17;;;;;;;12.25;5.25;;;;;;;17.59;100.00;102148.84;5057457;28;20115;-67
2023/10/08 01:33:11;;;;;;;14.13;5.72;;;;;;;17.58;100.00;102138.09;5053029;28;20417;-67
2023/10/08 01:36:03;;;;;;;10.60;5.07;;;;;;;17.57;100.00;102133.69;5051134;28;20048;-68
2023/10/08 01:38:51;;;;;;;15.27;5.63;;;;;;;17.54;100.00;102137.84;5052102;28;20512;-67
2023/10/08 01:41:40;;;;;;;11.20;5.03;;;;;;;17.53;100.00;102146.38;5053697;28;20048;-67
2023/10/08 01:44:30;;;;;;;15.07;6.03;;;;;;;17.52;100.00;102147.50;5072156;28;20063;-67
2023/10/08 01:47:19;;;;;;;16.30;6.40;;;;;;;17.50;100.00;102163.50;5056830;28;20041;-67
2023/10/08 01:50:21;;;;;;;13.32;5.68;;;;;;;17.45;100.00;102154.13;5056103;28;20049;-67
2023/10/08 01:53:10;;;;;;;14.15;5.65;;;;;;;17.43;100.00;102161.84;5066146;28;20048;-67
2023/10/08 01:55:59;;;;;;;15.90;6.28;;;;;;;17.42;100.00;102167.66;5057321;28;20049;-67
2023/10/08 01:58:47;;;;;;;13.85;5.30;;;;;;;17.40;100.00;102178.97;5072734;28;20182;-66
2023/10/08 02:01:35;;;;;;;16.55;5.90;;;;;;;17.39;100.00;102177.31;5061786;28;20412;-67
2023/10/08 02:04:23;;;;;;;16.55;6.30;;;;;;;17.38;100.00;102170.13;5047556;28;20047;-67
2023/10/08 02:07:12;;;;;;;13.55;6.32;;;;;;;17.36;100.00;102183.38;5076041;28;20133;-67
2023/10/08 02:10:01;;;;;;;12.98;5.13;;;;;;;17.36;100.00;102164.09;5075837;28;20060;-67
2023/10/08 02:12:49;;;;;;;14.38;5.63;;;;;;;17.32;100.00;102163.03;5061965;28;20071;-67
2023/10/08 02:15:40;;;;;;;15.73;5.13;;;;;;;17.30;100.00;102159.72;5061558;28;20052;-67
2023/10/08 02:18:30;;;;;;;13.13;5.57;;;;;;;17.30;100.00;102165.22;5047905;28;20067;-67
2023/10/08 02:21:19;;;;;;;15.57;5.82;;;;;;;17.28;100.00;102175.69;5073389;28;20060;-68
2023/10/08 02:24:08;;;;;;;11.18;5.40;;;;;;;17.26;100.00;102183.41;5056571;28;20049;-68
2023/10/08 02:26:57;;;;;;;14.63;5.65;;;;;;;17.24;100.00;102175.44;5056157;28;20061;-67
2023/10/08 02:29:45;;;;;;;13.45;6.13;;;;;;;17.24;100.00;102185.63;5064276;28;20056;-68
2023/10/08 02:32:33;;;;;;;15.52;6.05;;;;;;;17.22;100.00;102185.91;5060866;28;20497;-67
2023/10/08 02:35:22;;;;;;;14.70;5.85;;;;;;;17.19;100.00;102182.88;5060468;28;20044;-66
2023/10/08 02:38:16;;;;;;;13.75;6.35;;;;;;;17.16;100.00;102186.19;5047698;28;20178;-67
2023/10/08 02:41:07;;;;;;;15.30;6.32;;;;;;;17.12;100.00;102202.44;5041601;28;20546;-67
2023/10/08 02:43:59;;;;;;;13.13;5.43;;;;;;;17.11;100.00;102194.47;5070064;28;20053;-67
2023/10/08 02:46:49;;;;;;;13.50;5.72;;;;;;;17.11;100.00;102219.25;5060368;28;20040;-67
2023/10/08 02:49:40;;;;;;;15.70;5.60;;;;;;;17.11;100.00;102208.25;5066204;28;20127;-67
2023/10/08 02:52:28;;;;;;;15.65;6.10;;;;;;;17.10;100.00;102226.72;5075938;28;20044;-67
2023/10/08 02:55:34;;;;;;;12.30;5.55;;;;;;;17.09;100.00;102213.19;5061752;28;20517;-66
2023/10/08 02:58:25;;;;;;;14.52;6.10;;;;;;;17.06;100.00;102222.03;5058666;28;20049;-66
2023/10/08 03:01:12;;;;;;;14.75;5.78;;;;;;;17.06;100.00;102200.00;5077539;28;20068;-60
2023/10/08 03:04:08;;;;;;;16.65;5.95;;;;;;;17.08;100.00;102189.50;5033042;28;20049;-67
2023/10/08 03:06:56;;;;;;;;;;;;;;;17.09;100.00;102183.72;5064673;28;20060;-61
2023/10/08 03:09:44;;;;;;;15.13;6.15;;;;;;;17.09;100.00;102192.00;5086610;28;19920;-58
2023/10/08 03:12:33;;;;;;;15.48;6.22;;;;;;;17.09;100.00;102199.44;5092454;28;20040;-66
2023/10/08 03:15:37;;;;;;;14.35;5.80;;;;;;;17.08;100.00;102215.13;5076982;28;20082;-67
2023/10/08 03:18:26;;;;;;;15.75;6.05;;;;;;;17.05;100.00;102182.63;5074730;28;20072;-67
2023/10/08 03:21:20;;;;;;;17.52;6.72;;;;;;;17.03;100.00;102204.94;5045003;28;20045;-67
2023/10/08 03:24:23;;;;;;;18.05;6.70;;;;;;;17.03;100.00;102224.22;5033527;28;20080;-67
2023/10/08 03:27:20;;;;;;;14.63;5.85;;;;;;;17.02;100.00;102236.31;5054959;28;20107;-67
2023/10/08 03:30:14;;;;;;;13.23;6.03;;;;;;;17.00;100.00;102226.69;5040978;28;20128;-68
2023/10/08 03:33:06;;;;;;;14.57;5.65;;;;;;;16.99;100.00;102197.53;5040231;28;20051;-66
2023/10/08 03:36:00;;;;;;;12.55;5.65;;;;;;;16.98;100.00;102193.09;5029858;28;20049;-67
2023/10/08 03:38:51;;;;;;;17.10;6.80;;;;;;;16.97;100.00;102196.97;5040094;28;20084;-67
2023/10/08 03:41:58;;;;;;;19.45;6.25;;;;;;;16.96;100.00;102222.88;5064139;28;20047;-67
2023/10/08 03:44:50;;;;;;;16.30;6.25;;;;;;;16.95;100.00;102216.50;5061682;28;20045;-66
2023/10/08 03:47:41;;;;;;;15.63;5.47;;;;;;;16.96;100.00;102211.84;5073571;28;20416;-67
2023/10/08 03:50:43;;;;;;;16.90;6.88;;;;;;;16.97;100.00;102225.31;5058019;28;20488;-67
2023/10/08 03:53:42;;;;;;;13.43;5.68;;;;;;;16.95;100.00;102238.53;5047123;28;20484;-67
2023/10/08 03:56:31;;;;;;;15.65;5.82;;;;;;;16.95;100.00;102222.00;5058470;28;20527;-67
2023/10/08 03:59:31;;;;;;;17.02;6.35;;;;;;;16.94;100.00;102203.84;5059207;28;20484;-68
2023/10/08 04:05:40;;;;;;;15.95;6.22;;;;;;;16.94;100.00;102216.81;5036469;28;20135;-66
2023/10/08 04:08:55;;;;;;;16.02;5.90;;;;;;;16.93;100.00;102224.25;5060169;28;20091;-67
2023/10/08 04:14:36;;;;;;;18.05;6.85;;;;;;;16.87;100.00;102216.25;5059731;28;20045;-66
2023/10/08 04:17:24;;;;;;;21.88;6.97;;;;;;;16.85;100.00;102227.53;5074131;28;20048;-66
2023/10/08 04:23:21;;;;;;;12.77;5.78;;;;;;;16.82;100.00;102256.44;5033484;28;20103;-67
2023/10/08 04:26:10;;;;;;;15.52;7.30;;;;;;;16.79;100.00;102254.25;5037558;28;20052;-66
2023/10/08 04:29:01;;;;;;;18.33;7.95;;;;;;;16.79;100.00;102258.94;5026274;28;20057;-66
2023/10/08 04:32:01;;;;;;;21.48;7.70;;;;;;;16.77;100.00;102247.34;5047558;28;20040;-67
2023/10/08 04:34:49;;;;;;;18.38;6.90;;;;;;;16.75;100.00;102261.38;5068442;28;20171;-66
2023/10/08 04:37:40;;;;;;;18.02;7.90;;;;;;;16.71;100.00;102259.44;5072854;28;20048;-66
2023/10/08 04:40:33;;;;;;;15.48;6.47;;;;;;;16.72;100.00;102272.13;5058020;28;20052;-67
2023/10/08 04:43:25;;;;;;;20.08;6.78;;;;;;;16.73;100.00;102295.78;5071549;28;20519;-66
2023/10/08 04:46:33;;;;;;;16.20;7.07;;;;;;;16.69;100.00;102291.91;5070563;28;20048;-66
2023/10/08 04:49:27;;;;;;;17.90;6.70;;;;;;;16.68;100.00;102295.78;5071609;28;20043;-67
2023/10/08 04:52:18;;;;;;;18.52;7.00;;;;;;;16.67;100.00;102294.94;5071115;28;20036;-67
2023/10/08 04:55:15;;;;;;;19.58;6.90;;;;;;;16.65;100.00;102294.38;5072984;28;20595;-66
2023/10/08 04:58:12;;;;;;;19.10;6.72;;;;;;;16.64;100.00;102289.97;5052671;28;20151;-66
2023/10/08 05:01:17;;;;;;;15.43;6.60;;;;;;;16.67;100.00;102280.34;5053561;28;20044;-67
2023/10/08 05:08:00;;;;;;;18.42;7.78;;;;;;;16.68;100.00;102296.59;5050423;28;20450;-67
2023/10/08 05:16:19;;;;;;;14.90;6.82;;;;;;;16.60;100.00;102286.94;5074045;28;20051;-66
2023/10/08 05:19:24;;;;;;;19.65;7.00;;;;;;;16.59;100.00;102271.53;5052920;28;20540;-66
2023/10/08 05:28:24;;;;;;;15.77;6.85;;;;;;;16.59;100.00;102267.94;5044192;28;20068;-67
2023/10/08 05:34:18;;;;;;;13.07;6.43;;;;;;;16.53;100.00;102236.84;5026657;28;20041;-67
2023/10/08 05:40:10;;;;;;;17.00;7.72;;;;;;;16.51;100.00;102277.56;5076942;28;20569;-67
2023/10/08 05:43:13;;;;;;;17.90;7.63;;;;;;;16.49;100.00;102290.78;5075747;28;20040;-66
2023/10/08 05:55:14;;;;;;;15.75;6.65;;;;;;;16.42;100.00;102284.69;5060945;28;20523;-66
2023/10/08 06:01:08;;;;;;;17.50;6.90;;;;;;;16.47;100.00;102278.38;5056791;28;20042;-66
2023/10/08 06:04:00;;;;;;;18.27;7.57;;;;;;;16.45;100.00;102273.19;5062973;28;20051;-66
2023/10/08 06:07:11;;;;;;;18.65;8.13;;;;;;;16.46;100.00;102279.50;5075342;28;20127;-66
2023/10/08 06:10:13;;;;;;;20.63;7.60;;;;;;;16.44;100.00;102293.50;5059379;28;20516;-66
2023/10/08 06:13:09;;;;;;;16.42;7.15;;;;;;;16.42;100.00;102300.38;5052164;28;20055;-67
2023/10/08 06:18:46;;;;;;;18.13;7.57;;;;;;;16.43;100.00;102297.38;5075817;28;20131;-65
2023/10/08 06:21:37;;;;;;;14.00;6.85;;;;;;;16.44;100.00;102288.00;5058180;28;20049;-67
2023/10/08 06:24:25;;;;;;;13.25;6.65;;;;;;;16.44;100.00;102298.19;5045112;28;20072;-67
2023/10/08 06:27:17;;;;;;;24.88;7.70;;;;;;;16.43;100.00;102308.38;4721065;28;10000193;-67
2023/10/08 06:30:05;;;;;;;17.08;7.60;;;;;;;16.42;100.00;102317.72;5052219;28;20053;-65
2023/10/08 06:32:54;;;;;;;19.60;8.05;;;;;;;16.43;100.00;102307.53;5068506;28;20052;-65
2023/10/08 06:35:44;;;;;;;19.85;6.97;;;;;;;16.43;100.00;102308.38;5071290;28;20123;-66
2023/10/08 06:38:33;;;;;;;17.05;7.28;;;;;;;16.46;100.00;102315.25;5070554;28;20075;-65
2023/10/08 06:41:28;;;;;;;16.00;7.43;;;;;;;16.47;100.00;102320.47;5058667;28;20052;-66
2023/10/08 06:44:38;;;;;;;17.05;7.43;;;;;;;16.49;100.00;102323.78;5056747;28;20049;-67
2023/10/08 06:47:29;;;;;;;17.15;7.38;;;;;;;16.50;100.00;102321.84;5072165;28;20051;-66
2023/10/08 06:50:18;;;;;;;17.63;7.72;;;;;;;16.48;100.00;102346.91;5056896;28;20048;-66
2023/10/08 06:53:07;;;;;;;20.42;8.05;;;;;;;16.45;100.00;102366.72;5036744;28;20048;-67
2023/10/08 06:55:56;;;;;;;22.42;8.27;;;;;;;16.43;100.00;102368.91;5063728;28;20641;-66
2023/10/08 06:58:49;;;;;;;18.88;7.95;;;;;;;16.41;100.00;102371.09;5056383;28;20047;-66
2023/10/08 07:01:40;;;;;;;20.45;8.63;;;;;;;16.39;100.00;102373.28;5071810;28;20053;-65
2023/10/08 07:04:29;;;;;;;15.02;7.97;;;;;;;16.38;100.00;102363.41;5057051;28;20831;-64
2023/10/08 07:07:18;;;;;;;16.38;7.68;;;;;;;16.37;100.00;102365.28;5069802;28;20443;-67
2023/10/08 07:10:10;;;;;;;19.88;9.15;;;;;;;16.37;100.00;102365.28;5052780;28;20036;-66
2023/10/08 07:12:59;;;;;;;17.77;8.38;;;;;;;16.36;100.00;102360.91;5054443;28;20047;-66
2023/10/08 07:15:50;;;;;;;15.30;7.65;;;;;;;16.36;100.00;102366.41;5073081;28;20036;-63
2023/10/08 07:18:39;;;;;;;18.25;8.60;;;;;;;16.32;100.00;102384.53;5045246;28;20405;-66
2023/10/08 07:21:38;;;;;;;19.60;7.72;;;;;;;16.20;100.00;102381.19;5059482;28;20048;-66
2023/10/08 07:24:30;;;;;;;18.45;8.55;;;;;;;16.16;100.00;102386.41;5076643;28;20044;-60
2023/10/08 07:27:21;;;;;;;22.08;8.95;;;;;;;16.13;100.00;102378.66;5090077;28;20056;-61
2023/10/08 07:30:10;;;;;;;15.48;7.78;;;;;;;16.05;100.00;102379.19;5050521;28;20107;-64
2023/10/08 07:32:58;;;;;;;15.30;7.40;;;;;;;16.09;100.00;102394.06;5076821;28;20063;-64
2023/10/08 07:36:11;;;;;;;27.15;9.13;;;;;;;16.10;100.00;102384.72;5088447;28;20070;-59
2023/10/08 07:39:03;;;;;;;20.70;8.45;;;;;;;16.11;100.00;102389.09;5064426;28;20106;-66
2023/10/08 07:41:53;;;;;;;19.33;8.70;;;;;;;16.14;100.00;102390.50;5073766;28;20504;-66
2023/10/08 07:44:41;;;;;;;21.02;9.07;;;;;;;16.14;100.00;102396.00;5054781;28;20055;-66
2023/10/08 07:47:29;;;;;;;20.20;8.93;;;;;;;16.08;100.00;102397.88;5039348;28;20045;-64
2023/10/08 07:50:19;;;;;;;22.42;8.80;;;;;;;16.07;100.00;102395.44;5041104;28;20057;-66
2023/10/08 07:53:07;;;;;;;19.98;8.65;;;;;;;16.10;100.00;102403.97;5058087;28;20141;-65
2023/10/08 07:55:55;;;;;;;23.23;8.77;;;;;;;16.06;100.00;102407.50;5073863;28;20045;-65
2023/10/08 07:58:43;;;;;;;23.38;8.80;;;;;;;15.93;100.00;102406.06;5059477;28;20044;-65
2023/10/08 08:01:33;;;;;;;26.23;8.90;;;;;;;15.93;100.00;102415.13;5056605;28;20063;-65
2023/10/08 08:04:22;;;;;;;29.00;9.38;;;;;;;15.92;100.00;102418.97;5019586;28;20556;-65
2023/10/08 08:07:17;;;;;;;28.90;8.77;;;;;;;15.90;100.00;102409.34;5056044;28;20123;-66
2023/10/08 08:10:10;;;;;;;30.45;9.00;;;;;;;15.96;100.00;102405.53;5070267;28;20514;-66
2023/10/08 08:12:59;;;;;;;35.45;10.10;;;;;;;15.98;100.00;102411.59;5068778;28;20141;-64
2023/10/08 08:15:50;;;;;;;36.65;10.70;;;;;;;16.06;100.00;102413.00;5035116;28;20037;-66
2023/10/08 08:18:40;;;;;;;34.63;11.90;;;;;;;16.04;100.00;102416.00;5060381;28;20056;-65
2023/10/08 08:21:30;;;;;;;39.53;11.93;;;;;;;15.98;100.00;102428.91;5071698;28;20049;-64
2023/10/08 08:24:28;;;;;;;31.35;10.57;;;;;;;15.94;100.00;102436.00;5066631;28;20051;-65
2023/10/08 08:27:31;;;;;;;28.35;9.52;;;;;;;15.86;100.00;102438.44;5058920;28;20508;-63
2023/10/08 08:30:20;;;;;;;39.30;10.57;;;;;;;15.77;100.00;102446.34;5073342;28;20046;-64
2023/10/08 08:33:10;;;;;;;39.38;11.90;;;;;;;15.67;100.00;102455.31;5072253;28;20050;-63
2023/10/08 08:36:05;;;;;;;34.63;12.30;;;;;;;15.72;100.00;102463.63;5044177;28;20044;-62
2023/10/08 08:38:53;;;;;;;33.17;12.32;;;;;;;15.70;100.00;102468.53;5060088;28;20044;-64
2023/10/08 08:41:43;;;;;;;31.27;10.05;;;;;;;15.76;100.00;102464.75;5073230;28;20505;-65
2023/10/08 08:44:32;;;;;;;35.17;11.35;;;;;;;15.82;100.00;102462.03;5073684;28;20113;-65
2023/10/08 08:47:24;;;;;;;32.08;11.32;;;;;;;15.88;100.00;102472.00;5057357;28;20040;-65
2023/10/08 08:50:13;;;;;;;28.80;10.05;;;;;;;15.93;100.00;102469.28;5060620;28;20050;-64
2023/10/08 08:53:03;;;;;;;27.55;10.20;;;;;;;15.95;100.00;102470.69;5058711;28;20416;-65
2023/10/08 08:55:52;;;;;;;25.73;10.48;;;;;;;16.00;100.00;102474.56;5059197;28;20048;-63
2023/10/08 08:58:41;;;;;;;29.42;11.20;;;;;;;15.95;100.00;102465.19;5073493;28;20056;-65
2023/10/08 09:01:30;;;;;;;25.50;10.75;;;;;;;15.94;100.00;102465.44;5072653;28;20036;-65
2023/10/08 09:04:32;;;;;;;23.23;10.15;;;;;;;15.96;100.00;102469.56;5058703;28;20044;-64
2023/10/08 09:07:21;;;;;;;25.23;10.48;;;;;;;15.99;100.00;102473.72;5057846;28;20511;-64
2023/10/08 09:10:12;;;;;;;23.88;10.00;;;;;;;16.02;100.00;102473.22;5072078;28;20063;-65
2023/10/08 09:13:00;;;;;;;26.52;10.15;;;;;;;16.00;100.00;102480.06;5044657;28;20131;-65
2023/10/08 09:15:48;;;;;;;24.25;9.57;;;;;;;16.03;100.00;102485.84;5056353;28;20040;-65
2023/10/08 09:18:36;;;;;;;24.75;9.43;;;;;;;16.03;100.00;102491.34;5070510;28;20052;-64
2023/10/08 09:21:25;;;;;;;24.10;9.85;;;;;;;16.05;100.00;102493.84;4705803;28;10000555;-64
2023/10/08 09:24:20;;;;;;;21.40;9.60;;;;;;;15.95;100.00;102489.09;5066417;28;20052;-63
2023/10/08 09:27:09;;;;;;;21.80;9.00;;;;;;;15.84;100.00;102499.16;5067241;28;20509;-64
2023/10/08 09:29:57;;;;;;;21.55;9.32;;;;;;;15.73;100.00;102497.44;5053936;28;20055;-64
2023/10/08 09:32:45;;;;;;;18.30;8.55;;;;;;;15.77;100.00;102485.63;5066914;28;20052;-66
2023/10/08 09:35:33;;;;;;;13.90;8.18;;;;;;;15.83;100.00;102491.22;5040119;28;20079;-65
2023/10/08 09:38:23;;;;;;;22.45;9.20;;;;;;;15.86;100.00;102485.19;5038354;28;20048;-64
2023/10/08 09:41:11;;;;;;;18.88;8.40;;;;;;;15.89;100.00;102479.97;5054561;28;20127;-64
2023/10/08 09:44:00;;;;;;;19.40;8.93;;;;;;;15.85;100.00;102478.84;5036311;28;20523;-64
2023/10/08 09:46:55;;;;;;;18.45;8.40;;;;;;;15.80;100.00;102475.22;5057705;28;20052;-64
2023/10/08 09:49:56;;;;;;;;;;;;;;;15.86;100.00;102474.19;5054495;28;20584;-63
2023/10/08 09:53:06;;;;;;;16.85;9.27;;;;;;;15.93;100.00;102480.28;5054730;28;19924;-65
2023/10/08 09:55:57;;;;;;;15.57;8.55;;;;;;;16.00;100.00;102474.56;5068141;28;20046;-64
2023/10/08 09:58:49;;;;;;;14.38;7.93;;;;;;;16.04;100.00;102475.66;5069693;28;20045;-65
2023/10/08 10:01:41;;;;;;;19.02;9.52;;;;;;;16.04;100.00;102460.00;5055047;28;20055;-64
2023/10/08 10:04:35;;;;;;;17.67;8.05;;;;;;;15.94;100.00;102459.94;5068731;28;20052;-65
2023/10/08 10:07:25;;;;;;;11.93;6.90;;;;;;;15.93;100.00;102464.59;5052526;28;20052;-65
2023/10/08 10:10:34;;;;;;;14.75;7.32;;;;;;;15.95;100.00;102469.84;5043713;28;20454;-65
2023/10/08 10:13:28;;;;;;;13.98;7.10;;;;;;;16.00;100.00;102469.88;5061359;28;20052;-64
2023/10/08 10:16:22;;;;;;;13.27;6.60;;;;;;;16.06;100.00;102473.50;5040292;28;20246;-64
2023/10/08 10:19:18;;;;;;;13.88;7.22;;;;;;;16.05;100.00;102483.66;5051580;28;20512;-64
2023/10/08 10:22:11;;;;;;;14.73;6.70;;;;;;;16.06;100.00;102485.31;5060754;28;20489;-65
2023/10/08 10:25:02;;;;;;;12.50;5.88;;;;;;;16.07;100.00;102484.25;5051463;28;20075;-66
2023/10/08 10:27:53;;;;;;;14.43;6.32;;;;;;;16.08;100.00;102483.13;5058105;28;20092;-64
2023/10/08 10:30:42;;;;;;;15.85;5.88;;;;;;;16.11;100.00;102477.09;5067453;28;20531;-64
2023/10/08 10:33:33;;;;;;;14.88;5.47;;;;;;;16.11;100.00;102474.34;5037945;28;20190;-64
2023/10/08 10:36:22;;;;;;;9.88;4.32;;;;;;;16.16;100.00;102474.41;5050771;28;20179;-65
2023/10/08 10:39:17;;;;;;;10.13;4.65;;;;;;;16.24;100.00;102483.25;5052936;28;20131;-66
2023/10/08 10:42:06;;;;;;;10.68;4.95;;;;;;;16.31;100.00;102490.16;5070494;28;20539;-64
2023/10/08 10:44:56;;;;;;;12.70;4.78;;;;;;;16.27;100.00;102496.47;5070550;28;20075;-64
2023/10/08 10:47:46;;;;;;;10.32;4.32;;;;;;;16.22;100.00;102486.25;5058201;28;20848;-65
2023/10/08 10:50:39;;;;;;;10.18;4.63;;;;;;;16.21;100.00;102492.00;5047938;28;20416;-64
2023/10/08 10:53:29;;;;;;;10.93;4.60;;;;;;;16.22;100.00;102483.50;5070343;28;20086;-65
2023/10/08 10:56:18;;;;;;;11.75;4.97;;;;;;;16.28;100.00;102496.19;5070334;28;20037;-64
2023/10/08 10:59:18;;;;;;;11.82;5.38;;;;;;;16.35;100.00;102495.94;5071807;28;20582;-62
2023/10/08 11:02:21;;;;;;;14.65;5.70;;;;;;;16.36;100.00;102494.88;5044958;28;20563;-64
2023/10/08 11:05:19;;;;;;;15.75;5.40;;;;;;;16.37;100.00;102499.25;5057114;28;20105;-64
2023/10/08 11:08:08;;;;;;;13.27;5.25;;;;;;;16.33;100.00;102498.97;5040234;28;20037;-65
2023/10/08 11:10:58;;;;;;;14.15;5.15;;;;;;;16.31;100.00;102494.84;5049548;28;20044;-64
2023/10/08 11:13:54;;;;;;;13.48;5.50;;;;;;;16.35;100.00;102493.19;5070934;28;20508;-64
2023/10/08 11:16:43;;;;;;;12.15;4.40;;;;;;;16.47;100.00;102487.50;5039643;28;20146;-64
2023/10/08 11:19:32;;;;;;;13.10;4.75;;;;;;;16.55;100.00;102490.56;5037272;28;20490;-65
2023/10/08 11:22:22;;;;;;;12.68;4.93;;;;;;;16.60;100.00;102485.09;5066048;28;20040;-65
2023/10/08 11:25:30;;;;;;;11.57;4.50;;;;;;;16.64;100.00;102487.28;5071071;28;20075;-64
2023/10/08 11:28:18;;;;;;;15.77;5.15;;;;;;;16.57;100.00;102479.28;5071711;28;20068;-64
2023/10/08 11:31:10;;;;;;;15.38;5.18;;;;;;;16.51;100.00;102483.13;5069404;28;20055;-64
2023/10/08 11:34:08;;;;;;;10.07;4.60;;;;;;;16.44;100.00;102474.28;5044925;28;20048;-65
2023/10/08 11:36:56;;;;;;;15.50;5.32;;;;;;;16.41;100.00;102464.63;5058818;28;20408;-63
2023/10/08 11:39:48;;;;;;;11.57;4.53;;;;;;;16.41;100.00;102470.13;5071616;28;20049;-66
2023/10/08 11:45:28;;;;;;;13.52;5.30;;;;;;;16.50;100.00;102474.03;5075400;28;20053;-64
2023/10/08 11:48:28;;;;;;;13.18;5.63;;;;;;;16.54;100.00;102463.31;5054315;28;20139;-61
2023/10/08 11:51:17;;;;;;;16.77;5.03;;;;;;;16.60;100.00;102456.75;5060471;28;20076;-61
2023/10/08 11:54:05;;;;;;;10.82;4.88;;;;;;;16.65;100.00;102459.53;5080753;28;20102;-64
2023/10/08 11:56:56;;;;;;;11.35;5.03;;;;;;;16.68;100.00;102464.47;5077545;28;20037;-61
2023/10/08 11:59:46;;;;;;;11.85;4.80;;;;;;;16.70;100.00;102462.28;5081235;28;20455;-60
2023/10/08 12:02:34;;;;;;;9.20;4.25;;;;;;;16.72;100.00;102454.59;5086687;28;20044;-59
2023/10/08 12:05:23;;;;;;;10.45;4.68;;;;;;;16.79;100.00;102446.94;5089648;28;20055;-63
2023/10/08 12:08:11;;;;;;;10.38;5.00;;;;;;;16.83;100.00;102449.97;5071886;28;20086;-63
2023/10/08 12:11:00;;;;;;;12.30;5.40;;;;;;;16.79;100.00;102446.13;5073387;28;20047;-63
2023/10/08 12:13:48;;;;;;;12.85;5.03;;;;;;;16.79;100.00;102452.44;5073485;28;20044;-64
2023/10/08 12:16:36;;;;;;;11.13;5.63;;;;;;;16.82;100.00;102442.81;5060359;28;20041;-62
2023/10/08 12:19:26;;;;;;;13.15;6.60;;;;;;;16.83;100.00;102444.47;5073229;28;20500;-63
2023/10/08 12:22:19;;;;;;;11.85;5.65;;;;;;;16.82;100.00;102442.81;5073461;28;20049;-64
2023/10/08 12:25:08;;;;;;;11.20;5.68;;;;;;;16.84;100.00;102446.13;5072545;28;20141;-65
2023/10/08 12:27:57;;;;;;;10.70;5.45;;;;;;;16.86;100.00;102441.19;5044206;28;20097;-64
2023/10/08 12:30:45;;;;;;;14.35;6.63;;;;;;;16.87;100.00;102444.75;5074460;28;20044;-64
2023/10/08 12:33:34;;;;;;;11.20;6.20;;;;;;;16.85;100.00;102436.75;5061573;28;20048;-63
2023/10/08 12:36:23;;;;;;;9.35;6.22;;;;;;;16.86;100.00;102432.94;5069765;28;20052;-64
2023/10/08 12:39:14;;;;;;;10.50;5.93;;;;;;;16.88;100.00;102425.19;5059906;28;20040;-63
2023/10/08 12:42:05;;;;;;;9.63;5.63;;;;;;;16.91;100.00;102430.19;5057838;28;20064;-65
2023/10/08 12:44:55;;;;;;;11.10;5.90;;;;;;;16.93;100.00;102428.00;5071062;28;20055;-64
2023/10/08 12:47:43;;;;;;;9.98;6.18;;;;;;;16.95;100.00;102419.44;5056718;28;20489;-64
2023/10/08 12:50:42;;;;;;;12.90;6.97;;;;;;;16.94;100.00;102417.81;5072021;28;20493;-63
2023/10/08 12:53:33;;;;;;;15.05;8.20;;;;;;;16.89;100.00;102410.34;5073589;28;20070;-65
2023/10/08 12:56:31;;;;;;;11.65;6.40;;;;;;;16.85;100.00;102408.41;5070586;28;20047;-65
2023/10/08 12:59:23;;;;;;;8.60;4.93;;;;;;;16.86;100.00;102407.31;4708447;28;10000029;-64
2023/10/08 13:02:12;;;;;;;11.82;6.47;;;;;;;16.89;100.00;102404.03;5036877;28;20049;-64
2023/10/08 13:05:00;;;;;;;10.77;5.78;;;;;;;16.92;100.00;102393.28;5046055;28;20045;-64
2023/10/08 13:07:48;;;;;;;13.48;6.18;;;;;;;16.98;100.00;102383.09;5068977;28;20483;-64
2023/10/08 13:10:41;;;;;;;16.85;6.70;;;;;;;17.01;100.00;102380.63;5073060;28;20068;-66
2023/10/08 13:13:36;;;;;;;13.55;6.35;;;;;;;17.02;100.00;102370.44;5027475;28;20491;-63
2023/10/08 13:16:28;;;;;;;10.27;5.82;;;;;;;17.06;100.00;102367.97;5050181;28;20080;-64
2023/10/08 13:19:19;;;;;;;13.57;5.63;;;;;;;17.11;100.00;102357.78;5035526;28;20060;-65
2023/10/08 13:22:07;;;;;;;10.98;5.47;;;;;;;17.14;100.00;102351.72;5020858;28;20052;-65
2023/10/08 13:24:56;;;;;;;15.55;7.32;;;;;;;17.16;100.00;102354.22;5033391;28;20049;-65
2023/10/08 13:27:44;;;;;;;13.30;6.20;;;;;;;17.16;100.00;102354.22;5054152;28;20056;-65
2023/10/08 13:30:32;;;;;;;15.25;6.90;;;;;;;17.17;100.00;102361.34;5069614;28;20063;-64
2023/10/08 13:33:22;;;;;;;14.70;7.22;;;;;;;17.15;100.00;102363.56;5068116;28;20131;-64
2023/10/08 13:36:13;;;;;;;14.50;6.80;;;;;;;17.15;100.00;102352.53;5035939;28;20045;-65
2023/10/08 13:39:14;;;;;;;11.27;6.30;;;;;;;17.17;100.00;102344.84;5060563;28;20519;-65
2023/10/08 13:42:06;;;;;;;15.88;6.85;;;;;;;17.19;100.00;102334.38;5069478;28;20626;-64
2023/10/08 13:44:57;;;;;;;18.15;7.82;;;;;;;17.19;100.00;102335.19;5068270;28;20060;-64
2023/10/08 13:47:47;;;;;;;14.55;7.40;;;;;;;17.20;100.00;102333.28;5067942;28;20143;-64
2023/10/08 13:50:36;;;;;;;14.32;6.90;;;;;;;17.24;100.00;102335.22;5054077;28;20131;-64
2023/10/08 13:53:24;;;;;;;15.30;7.20;;;;;;;17.26;100.00;102329.41;5051968;28;20053;-65